sensor_id;sensor_type;location;lat;lon;timestamp;P1;durP1;ratioP1;P2;durP2;ratioP2
21503;SDS011;10913;51.992;9.228;2023-04-29T00:01:03;12.48;;;11.07;;
21503;SDS011;10913;51.992;9.228;2023-04-29T00:03:29;12.55;;;11.10;;
21503;SDS011;10913;51.992;9.228;2023-04-29T00:05:56;12.95;;;11.57;;
21503;SDS011;10913;51.992;9.228;2023-04-29T00:08:22;12.75;;;11.10;;
21503;SDS011;10913;51.992;9.228;2023-04-29T00:10:48;13.30;;;11.30;;
21503;SDS011;10913;51.992;9.228;2023-04-29T00:13:14;14.55;;;12.93;;
21503;SDS011;10913;51.992;9.228;2023-04-29T00:15:40;13.50;;;11.40;;
21503;SDS011;10913;51.992;9.228;2023-04-29T00:18:06;16.35;;;13.68;;
21503;SDS011;10913;51.992;9.228;2023-04-29T00:20:31;15.98;;;12.82;;
21503;SDS011;10913;51.992;9.228;2023-04-29T00:22:56;15.60;;;13.15;;
21503;SDS011;10913;51.992;9.228;2023-04-29T00:25:22;14.57;;;13.00;;
21503;SDS011;10913;51.992;9.228;2023-04-29T00:27:47;15.32;;;13.57;;
21503;SDS011;10913;51.992;9.228;2023-04-29T00:30:13;15.65;;;13.35;;
21503;SDS011;10913;51.992;9.228;2023-04-29T00:32:38;14.63;;;12.98;;
21503;SDS011;10913;51.992;9.228;2023-04-29T00:35:04;15.75;;;13.38;;
21503;SDS011;10913;51.992;9.228;2023-04-29T00:37:30;18.23;;;15.15;;
21503;SDS011;10913;51.992;9.228;2023-04-29T00:39:56;18.60;;;15.15;;
21503;SDS011;10913;51.992;9.228;2023-04-29T00:42:21;21.90;;;17.88;;
21503;SDS011;10913;51.992;9.228;2023-04-29T00:44:46;21.23;;;17.05;;
21503;SDS011;10913;51.992;9.228;2023-04-29T00:47:12;22.48;;;18.25;;
21503;SDS011;10913;51.992;9.228;2023-04-29T00:49:38;23.92;;;19.10;;
21503;SDS011;10913;51.992;9.228;2023-04-29T00:52:04;26.13;;;19.73;;
21503;SDS011;10913;51.992;9.228;2023-04-29T00:54:32;24.20;;;19.55;;
21503;SDS011;10913;51.992;9.228;2023-04-29T00:56:59;24.08;;;18.92;;
21503;SDS011;10913;51.992;9.228;2023-04-29T00:59:25;25.90;;;20.80;;
21503;SDS011;10913;51.992;9.228;2023-04-29T01:01:56;28.00;;;22.23;;
21503;SDS011;10913;51.992;9.228;2023-04-29T01:04:27;28.85;;;21.50;;
21503;SDS011;10913;51.992;9.228;2023-04-29T01:15:31;28.23;;;21.10;;
21503;SDS011;10913;51.992;9.228;2023-04-29T01:17:59;28.70;;;21.23;;
21503;SDS011;10913;51.992;9.228;2023-04-29T01:20:30;29.90;;;21.65;;
21503;SDS011;10913;51.992;9.228;2023-04-29T01:22:57;28.50;;;21.60;;
21503;SDS011;10913;51.992;9.228;2023-04-29T01:25:22;28.48;;;20.85;;
21503;SDS011;10913;51.992;9.228;2023-04-29T01:27:51;30.27;;;22.55;;
21503;SDS011;10913;51.992;9.228;2023-04-29T01:39:10;32.63;;;23.23;;
21503;SDS011;10913;51.992;9.228;2023-04-29T01:41:44;35.05;;;24.52;;
21503;SDS011;10913;51.992;9.228;2023-04-29T01:44:19;31.60;;;23.45;;
21503;SDS011;10913;51.992;9.228;2023-04-29T01:46:51;29.67;;;21.50;;
21503;SDS011;10913;51.992;9.228;2023-04-29T01:49:27;33.60;;;23.40;;
21503;SDS011;10913;51.992;9.228;2023-04-29T01:51:53;35.28;;;24.42;;
21503;SDS011;10913;51.992;9.228;2023-04-29T01:54:19;35.13;;;24.85;;
21503;SDS011;10913;51.992;9.228;2023-04-29T01:56:46;38.20;;;26.63;;
21503;SDS011;10913;51.992;9.228;2023-04-29T01:59:11;38.65;;;25.70;;
21503;SDS011;10913;51.992;9.228;2023-04-29T02:01:36;37.50;;;25.25;;
21503;SDS011;10913;51.992;9.228;2023-04-29T02:04:02;34.20;;;24.45;;
21503;SDS011;10913;51.992;9.228;2023-04-29T02:06:27;35.67;;;24.90;;
21503;SDS011;10913;51.992;9.228;2023-04-29T02:08:53;37.25;;;24.80;;
21503;SDS011;10913;51.992;9.228;2023-04-29T02:11:18;36.35;;;24.83;;
21503;SDS011;10913;51.992;9.228;2023-04-29T02:13:44;38.08;;;25.75;;
21503;SDS011;10913;51.992;9.228;2023-04-29T02:16:10;34.00;;;23.48;;
21503;SDS011;10913;51.992;9.228;2023-04-29T02:18:36;34.90;;;23.95;;
21503;SDS011;10913;51.992;9.228;2023-04-29T02:21:02;36.85;;;25.13;;
21503;SDS011;10913;51.992;9.228;2023-04-29T02:23:27;36.45;;;24.73;;
21503;SDS011;10913;51.992;9.228;2023-04-29T02:25:53;35.83;;;24.65;;
21503;SDS011;10913;51.992;9.228;2023-04-29T02:28:19;39.75;;;25.65;;
21503;SDS011;10913;51.992;9.228;2023-04-29T02:30:44;38.63;;;26.45;;
21503;SDS011;10913;51.992;9.228;2023-04-29T02:33:09;38.67;;;25.10;;
21503;SDS011;10913;51.992;9.228;2023-04-29T02:35:35;37.38;;;25.25;;
21503;SDS011;10913;51.992;9.228;2023-04-29T02:38:00;36.35;;;25.05;;
21503;SDS011;10913;51.992;9.228;2023-04-29T02:40:26;35.25;;;23.77;;
21503;SDS011;10913;51.992;9.228;2023-04-29T02:42:51;42.20;;;29.73;;
21503;SDS011;10913;51.992;9.228;2023-04-29T02:45:17;36.15;;;25.17;;
21503;SDS011;10913;51.992;9.228;2023-04-29T02:47:42;38.53;;;26.38;;
21503;SDS011;10913;51.992;9.228;2023-04-29T02:50:07;40.15;;;26.90;;
21503;SDS011;10913;51.992;9.228;2023-04-29T02:52:33;38.33;;;26.45;;
21503;SDS011;10913;51.992;9.228;2023-04-29T02:54:58;37.55;;;25.15;;
21503;SDS011;10913;51.992;9.228;2023-04-29T02:57:24;36.05;;;24.25;;
21503;SDS011;10913;51.992;9.228;2023-04-29T02:59:49;37.13;;;25.05;;
21503;SDS011;10913;51.992;9.228;2023-04-29T03:02:15;36.08;;;23.77;;
21503;SDS011;10913;51.992;9.228;2023-04-29T03:04:41;36.00;;;24.63;;
21503;SDS011;10913;51.992;9.228;2023-04-29T03:07:06;34.00;;;23.40;;
21503;SDS011;10913;51.992;9.228;2023-04-29T03:09:32;33.45;;;22.25;;
21503;SDS011;10913;51.992;9.228;2023-04-29T03:11:58;34.28;;;23.02;;
21503;SDS011;10913;51.992;9.228;2023-04-29T03:14:23;36.47;;;23.08;;
21503;SDS011;10913;51.992;9.228;2023-04-29T03:16:48;34.95;;;22.50;;
21503;SDS011;10913;51.992;9.228;2023-04-29T03:19:14;35.92;;;23.52;;
21503;SDS011;10913;51.992;9.228;2023-04-29T03:21:39;33.08;;;21.60;;
21503;SDS011;10913;51.992;9.228;2023-04-29T03:24:04;37.88;;;24.10;;
21503;SDS011;10913;51.992;9.228;2023-04-29T03:26:30;34.75;;;23.42;;
21503;SDS011;10913;51.992;9.228;2023-04-29T03:28:56;36.50;;;23.40;;
21503;SDS011;10913;51.992;9.228;2023-04-29T03:31:22;36.10;;;23.92;;
21503;SDS011;10913;51.992;9.228;2023-04-29T03:33:49;36.50;;;23.70;;
21503;SDS011;10913;51.992;9.228;2023-04-29T03:36:15;33.55;;;22.55;;
21503;SDS011;10913;51.992;9.228;2023-04-29T03:38:40;35.95;;;23.02;;
21503;SDS011;10913;51.992;9.228;2023-04-29T03:41:06;28.40;;;19.33;;
21503;SDS011;10913;51.992;9.228;2023-04-29T03:43:32;29.02;;;19.85;;
21503;SDS011;10913;51.992;9.228;2023-04-29T03:45:57;29.55;;;19.65;;
21503;SDS011;10913;51.992;9.228;2023-04-29T03:48:23;28.80;;;19.38;;
21503;SDS011;10913;51.992;9.228;2023-04-29T03:50:48;25.98;;;17.75;;
21503;SDS011;10913;51.992;9.228;2023-04-29T03:53:14;26.33;;;17.83;;
21503;SDS011;10913;51.992;9.228;2023-04-29T03:55:40;23.20;;;15.98;;
21503;SDS011;10913;51.992;9.228;2023-04-29T03:58:05;22.23;;;14.90;;
21503;SDS011;10913;51.992;9.228;2023-04-29T04:00:31;18.02;;;12.80;;
21503;SDS011;10913;51.992;9.228;2023-04-29T04:02:56;17.77;;;12.75;;
21503;SDS011;10913;51.992;9.228;2023-04-29T04:05:22;16.42;;;12.13;;
21503;SDS011;10913;51.992;9.228;2023-04-29T04:07:52;15.93;;;11.32;;
21503;SDS011;10913;51.992;9.228;2023-04-29T04:10:17;14.57;;;10.80;;
21503;SDS011;10913;51.992;9.228;2023-04-29T04:12:43;17.25;;;11.90;;
21503;SDS011;10913;51.992;9.228;2023-04-29T04:15:09;14.95;;;11.48;;
21503;SDS011;10913;51.992;9.228;2023-04-29T04:17:35;14.02;;;10.15;;
21503;SDS011;10913;51.992;9.228;2023-04-29T04:20:00;12.82;;;9.73;;
21503;SDS011;10913;51.992;9.228;2023-04-29T04:22:26;13.82;;;10.18;;
21503;SDS011;10913;51.992;9.228;2023-04-29T04:24:53;13.15;;;10.43;;
21503;SDS011;10913;51.992;9.228;2023-04-29T04:27:19;13.07;;;10.57;;
21503;SDS011;10913;51.992;9.228;2023-04-29T04:29:44;14.60;;;12.15;;
21503;SDS011;10913;51.992;9.228;2023-04-29T04:32:10;15.80;;;12.73;;
21503;SDS011;10913;51.992;9.228;2023-04-29T04:34:35;15.43;;;11.98;;
21503;SDS011;10913;51.992;9.228;2023-04-29T04:37:03;17.45;;;13.50;;
21503;SDS011;10913;51.992;9.228;2023-04-29T04:39:28;19.33;;;15.48;;
21503;SDS011;10913;51.992;9.228;2023-04-29T04:41:54;17.08;;;13.93;;
21503;SDS011;10913;51.992;9.228;2023-04-29T04:44:19;20.42;;;16.13;;
21503;SDS011;10913;51.992;9.228;2023-04-29T04:46:45;19.92;;;16.23;;
21503;SDS011;10913;51.992;9.228;2023-04-29T04:49:10;20.98;;;16.02;;
21503;SDS011;10913;51.992;9.228;2023-04-29T04:51:36;21.45;;;16.48;;
21503;SDS011;10913;51.992;9.228;2023-04-29T04:54:01;20.67;;;15.88;;
21503;SDS011;10913;51.992;9.228;2023-04-29T04:56:26;23.80;;;17.58;;
21503;SDS011;10913;51.992;9.228;2023-04-29T04:58:52;21.98;;;18.00;;
21503;SDS011;10913;51.992;9.228;2023-04-29T05:01:17;20.77;;;16.73;;
21503;SDS011;10913;51.992;9.228;2023-04-29T05:03:43;22.42;;;17.05;;
21503;SDS011;10913;51.992;9.228;2023-04-29T05:06:08;22.45;;;17.48;;
21503;SDS011;10913;51.992;9.228;2023-04-29T05:08:33;22.23;;;17.80;;
21503;SDS011;10913;51.992;9.228;2023-04-29T05:10:59;21.50;;;15.95;;
21503;SDS011;10913;51.992;9.228;2023-04-29T05:13:24;23.67;;;17.58;;
21503;SDS011;10913;51.992;9.228;2023-04-29T05:15:49;22.00;;;17.75;;
21503;SDS011;10913;51.992;9.228;2023-04-29T05:18:15;22.55;;;17.52;;
21503;SDS011;10913;51.992;9.228;2023-04-29T05:20:40;22.98;;;18.30;;
21503;SDS011;10913;51.992;9.228;2023-04-29T05:23:06;23.85;;;17.50;;
21503;SDS011;10913;51.992;9.228;2023-04-29T05:25:31;24.27;;;18.23;;
21503;SDS011;10913;51.992;9.228;2023-04-29T05:27:57;27.30;;;18.90;;
21503;SDS011;10913;51.992;9.228;2023-04-29T05:30:22;21.88;;;16.85;;
21503;SDS011;10913;51.992;9.228;2023-04-29T05:32:47;23.55;;;18.58;;
21503;SDS011;10913;51.992;9.228;2023-04-29T05:35:13;25.10;;;18.80;;
21503;SDS011;10913;51.992;9.228;2023-04-29T05:37:39;26.45;;;20.13;;
21503;SDS011;10913;51.992;9.228;2023-04-29T05:40:05;25.17;;;18.75;;
21503;SDS011;10913;51.992;9.228;2023-04-29T05:42:31;29.88;;;21.45;;
21503;SDS011;10913;51.992;9.228;2023-04-29T05:44:57;26.40;;;19.58;;
21503;SDS011;10913;51.992;9.228;2023-04-29T05:47:22;28.00;;;19.45;;
21503;SDS011;10913;51.992;9.228;2023-04-29T05:49:48;26.00;;;19.92;;
21503;SDS011;10913;51.992;9.228;2023-04-29T05:52:14;28.60;;;21.10;;
21503;SDS011;10913;51.992;9.228;2023-04-29T05:54:39;29.23;;;20.33;;
21503;SDS011;10913;51.992;9.228;2023-04-29T05:57:05;25.48;;;19.52;;
21503;SDS011;10913;51.992;9.228;2023-04-29T05:59:32;27.42;;;20.80;;
21503;SDS011;10913;51.992;9.228;2023-04-29T06:01:58;25.48;;;19.35;;
21503;SDS011;10913;51.992;9.228;2023-04-29T06:04:24;29.25;;;20.83;;
21503;SDS011;10913;51.992;9.228;2023-04-29T06:06:51;27.00;;;20.50;;
21503;SDS011;10913;51.992;9.228;2023-04-29T06:09:18;31.45;;;22.52;;
21503;SDS011;10913;51.992;9.228;2023-04-29T06:11:44;30.90;;;22.10;;
21503;SDS011;10913;51.992;9.228;2023-04-29T06:14:10;29.02;;;22.27;;
21503;SDS011;10913;51.992;9.228;2023-04-29T06:16:35;30.67;;;21.45;;
21503;SDS011;10913;51.992;9.228;2023-04-29T06:19:01;27.75;;;21.35;;
21503;SDS011;10913;51.992;9.228;2023-04-29T06:21:26;31.98;;;22.83;;
21503;SDS011;10913;51.992;9.228;2023-04-29T06:23:52;29.60;;;22.52;;
21503;SDS011;10913;51.992;9.228;2023-04-29T06:26:18;34.33;;;25.40;;
21503;SDS011;10913;51.992;9.228;2023-04-29T06:28:45;36.53;;;26.38;;
21503;SDS011;10913;51.992;9.228;2023-04-29T06:31:10;34.50;;;24.40;;
21503;SDS011;10913;51.992;9.228;2023-04-29T06:33:36;34.33;;;24.98;;
21503;SDS011;10913;51.992;9.228;2023-04-29T06:36:01;35.80;;;25.75;;
21503;SDS011;10913;51.992;9.228;2023-04-29T06:38:27;33.70;;;24.08;;
21503;SDS011;10913;51.992;9.228;2023-04-29T06:40:52;40.17;;;28.15;;
21503;SDS011;10913;51.992;9.228;2023-04-29T06:43:18;38.90;;;27.30;;
21503;SDS011;10913;51.992;9.228;2023-04-29T06:45:46;40.80;;;29.33;;
21503;SDS011;10913;51.992;9.228;2023-04-29T06:48:11;42.17;;;29.45;;
21503;SDS011;10913;51.992;9.228;2023-04-29T06:50:37;43.45;;;29.55;;
21503;SDS011;10913;51.992;9.228;2023-04-29T06:53:02;46.83;;;33.03;;
21503;SDS011;10913;51.992;9.228;2023-04-29T06:55:28;44.92;;;30.40;;
21503;SDS011;10913;51.992;9.228;2023-04-29T06:57:53;49.63;;;34.10;;
21503;SDS011;10913;51.992;9.228;2023-04-29T07:00:18;49.28;;;33.30;;
21503;SDS011;10913;51.992;9.228;2023-04-29T07:02:45;49.75;;;33.35;;
21503;SDS011;10913;51.992;9.228;2023-04-29T07:05:10;51.97;;;35.00;;
21503;SDS011;10913;51.992;9.228;2023-04-29T07:07:36;52.55;;;34.92;;
21503;SDS011;10913;51.992;9.228;2023-04-29T07:10:01;55.58;;;36.35;;
21503;SDS011;10913;51.992;9.228;2023-04-29T07:12:27;61.40;;;38.55;;
21503;SDS011;10913;51.992;9.228;2023-04-29T07:14:52;49.30;;;35.25;;
21503;SDS011;10913;51.992;9.228;2023-04-29T07:17:18;52.63;;;36.00;;
21503;SDS011;10913;51.992;9.228;2023-04-29T07:19:43;54.47;;;36.40;;
21503;SDS011;10913;51.992;9.228;2023-04-29T07:22:08;49.95;;;34.72;;
21503;SDS011;10913;51.992;9.228;2023-04-29T07:24:34;52.15;;;35.65;;
21503;SDS011;10913;51.992;9.228;2023-04-29T07:26:59;51.13;;;35.75;;
21503;SDS011;10913;51.992;9.228;2023-04-29T07:29:24;51.20;;;35.50;;
21503;SDS011;10913;51.992;9.228;2023-04-29T07:31:50;53.38;;;37.65;;
21503;SDS011;10913;51.992;9.228;2023-04-29T07:34:15;47.40;;;33.72;;
21503;SDS011;10913;51.992;9.228;2023-04-29T07:36:40;51.03;;;36.58;;
21503;SDS011;10913;51.992;9.228;2023-04-29T07:39:06;53.35;;;35.97;;
21503;SDS011;10913;51.992;9.228;2023-04-29T07:41:31;46.03;;;33.90;;
21503;SDS011;10913;51.992;9.228;2023-04-29T07:43:56;50.50;;;36.35;;
21503;SDS011;10913;51.992;9.228;2023-04-29T07:46:22;45.38;;;33.13;;
21503;SDS011;10913;51.992;9.228;2023-04-29T07:48:48;44.13;;;32.13;;
21503;SDS011;10913;51.992;9.228;2023-04-29T07:51:14;42.92;;;30.45;;
21503;SDS011;10913;51.992;9.228;2023-04-29T07:53:39;44.28;;;32.53;;
21503;SDS011;10913;51.992;9.228;2023-04-29T07:56:06;43.50;;;33.08;;
21503;SDS011;10913;51.992;9.228;2023-04-29T07:58:32;46.67;;;34.30;;
21503;SDS011;10913;51.992;9.228;2023-04-29T08:01:04;50.83;;;36.47;;
21503;SDS011;10913;51.992;9.228;2023-04-29T08:03:33;41.63;;;31.70;;
21503;SDS011;10913;51.992;9.228;2023-04-29T08:06:01;40.65;;;31.35;;
21503;SDS011;10913;51.992;9.228;2023-04-29T08:08:28;44.60;;;33.67;;
21503;SDS011;10913;51.992;9.228;2023-04-29T08:10:54;47.33;;;35.53;;
21503;SDS011;10913;51.992;9.228;2023-04-29T08:13:20;40.65;;;31.92;;
21503;SDS011;10913;51.992;9.228;2023-04-29T08:15:45;49.65;;;35.42;;
21503;SDS011;10913;51.992;9.228;2023-04-29T08:18:10;43.83;;;34.90;;
21503;SDS011;10913;51.992;9.228;2023-04-29T08:20:36;47.25;;;35.05;;
21503;SDS011;10913;51.992;9.228;2023-04-29T08:23:01;39.88;;;31.67;;
21503;SDS011;10913;51.992;9.228;2023-04-29T08:25:26;44.15;;;33.88;;
21503;SDS011;10913;51.992;9.228;2023-04-29T08:27:53;41.45;;;32.95;;
21503;SDS011;10913;51.992;9.228;2023-04-29T08:30:18;41.28;;;31.95;;
21503;SDS011;10913;51.992;9.228;2023-04-29T08:32:44;36.72;;;29.98;;
21503;SDS011;10913;51.992;9.228;2023-04-29T08:35:09;41.75;;;32.45;;
21503;SDS011;10913;51.992;9.228;2023-04-29T08:37:35;44.90;;;35.20;;
21503;SDS011;10913;51.992;9.228;2023-04-29T08:40:00;39.90;;;30.80;;
21503;SDS011;10913;51.992;9.228;2023-04-29T08:42:34;33.83;;;27.75;;
21503;SDS011;10913;51.992;9.228;2023-04-29T08:45:01;30.65;;;26.10;;
21503;SDS011;10913;51.992;9.228;2023-04-29T08:47:30;31.52;;;27.25;;
21503;SDS011;10913;51.992;9.228;2023-04-29T08:50:03;38.45;;;29.02;;
21503;SDS011;10913;51.992;9.228;2023-04-29T08:52:30;31.25;;;25.88;;
21503;SDS011;10913;51.992;9.228;2023-04-29T08:54:56;32.33;;;26.55;;
21503;SDS011;10913;51.992;9.228;2023-04-29T08:57:23;33.75;;;27.25;;
21503;SDS011;10913;51.992;9.228;2023-04-29T08:59:50;29.50;;;24.48;;
21503;SDS011;10913;51.992;9.228;2023-04-29T09:02:15;28.48;;;24.98;;
21503;SDS011;10913;51.992;9.228;2023-04-29T09:04:54;28.35;;;23.98;;
21503;SDS011;10913;51.992;9.228;2023-04-29T09:07:29;24.80;;;21.83;;
21503;SDS011;10913;51.992;9.228;2023-04-29T09:09:55;26.33;;;21.85;;
21503;SDS011;10913;51.992;9.228;2023-04-29T09:12:23;25.38;;;22.27;;
21503;SDS011;10913;51.992;9.228;2023-04-29T09:14:48;22.70;;;20.08;;
21503;SDS011;10913;51.992;9.228;2023-04-29T09:17:13;23.40;;;20.65;;
21503;SDS011;10913;51.992;9.228;2023-04-29T09:19:40;21.30;;;19.00;;
21503;SDS011;10913;51.992;9.228;2023-04-29T09:22:06;20.83;;;18.60;;
21503;SDS011;10913;51.992;9.228;2023-04-29T09:24:32;19.30;;;17.10;;
21503;SDS011;10913;51.992;9.228;2023-04-29T09:26:57;20.98;;;18.77;;
21503;SDS011;10913;51.992;9.228;2023-04-29T09:29:24;20.52;;;18.33;;
21503;SDS011;10913;51.992;9.228;2023-04-29T09:31:50;23.08;;;18.65;;
21503;SDS011;10913;51.992;9.228;2023-04-29T09:34:29;20.98;;;17.23;;
21503;SDS011;10913;51.992;9.228;2023-04-29T09:37:05;16.38;;;14.77;;
21503;SDS011;10913;51.992;9.228;2023-04-29T09:39:53;17.80;;;15.88;;
21503;SDS011;10913;51.992;9.228;2023-04-29T09:42:19;16.45;;;14.77;;
21503;SDS011;10913;51.992;9.228;2023-04-29T09:44:44;15.65;;;14.15;;
21503;SDS011;10913;51.992;9.228;2023-04-29T09:47:10;15.52;;;13.95;;
21503;SDS011;10913;51.992;9.228;2023-04-29T09:49:39;16.00;;;14.40;;
21503;SDS011;10913;51.992;9.228;2023-04-29T09:52:07;16.33;;;14.57;;
21503;SDS011;10913;51.992;9.228;2023-04-29T09:54:41;14.57;;;13.07;;
21503;SDS011;10913;51.992;9.228;2023-04-29T09:57:07;13.73;;;12.40;;
21503;SDS011;10913;51.992;9.228;2023-04-29T09:59:35;14.85;;;12.38;;
21503;SDS011;10913;51.992;9.228;2023-04-29T10:02:05;13.68;;;12.27;;
21503;SDS011;10913;51.992;9.228;2023-04-29T10:04:38;14.10;;;12.63;;
21503;SDS011;10913;51.992;9.228;2023-04-29T10:07:04;13.45;;;12.05;;
21503;SDS011;10913;51.992;9.228;2023-04-29T10:09:31;13.27;;;11.95;;
21503;SDS011;10913;51.992;9.228;2023-04-29T10:11:57;14.15;;;12.10;;
21503;SDS011;10913;51.992;9.228;2023-04-29T10:14:26;13.45;;;10.70;;
21503;SDS011;10913;51.992;9.228;2023-04-29T10:17:01;12.85;;;11.55;;
21503;SDS011;10913;51.992;9.228;2023-04-29T10:19:37;13.65;;;12.27;;
21503;SDS011;10913;51.992;9.228;2023-04-29T10:22:11;12.95;;;11.50;;
21503;SDS011;10913;51.992;9.228;2023-04-29T10:24:41;11.93;;;10.75;;
21503;SDS011;10913;51.992;9.228;2023-04-29T10:27:07;11.18;;;9.38;;
21503;SDS011;10913;51.992;9.228;2023-04-29T10:29:36;11.20;;;10.13;;
21503;SDS011;10913;51.992;9.228;2023-04-29T10:32:03;12.23;;;10.40;;
21503;SDS011;10913;51.992;9.228;2023-04-29T10:34:31;11.25;;;10.15;;
21503;SDS011;10913;51.992;9.228;2023-04-29T10:36:59;11.60;;;10.38;;
21503;SDS011;10913;51.992;9.228;2023-04-29T10:39:47;11.00;;;9.90;;
21503;SDS011;10913;51.992;9.228;2023-04-29T10:42:20;18.50;;;15.23;;
21503;SDS011;10913;51.992;9.228;2023-04-29T10:53:06;23.50;;;18.02;;
21503;SDS011;10913;51.992;9.228;2023-04-29T10:55:35;23.25;;;17.38;;
21503;SDS011;10913;51.992;9.228;2023-04-29T10:58:02;19.45;;;15.25;;
21503;SDS011;10913;51.992;9.228;2023-04-29T11:00:29;22.98;;;18.13;;
21503;SDS011;10913;51.992;9.228;2023-04-29T11:02:57;22.67;;;18.90;;
21503;SDS011;10913;51.992;9.228;2023-04-29T11:05:31;16.98;;;14.50;;
21503;SDS011;10913;51.992;9.228;2023-04-29T11:08:10;22.42;;;18.48;;
21503;SDS011;10913;51.992;9.228;2023-04-29T11:10:49;22.45;;;17.83;;
21503;SDS011;10913;51.992;9.228;2023-04-29T11:15:46;20.52;;;16.60;;
21503;SDS011;10913;51.992;9.228;2023-04-29T11:18:12;17.95;;;16.05;;
21503;SDS011;10913;51.992;9.228;2023-04-29T11:23:28;15.60;;;14.00;;
21503;SDS011;10913;51.992;9.228;2023-04-29T11:25:54;16.70;;;15.00;;
21503;SDS011;10913;51.992;9.228;2023-04-29T11:28:20;16.95;;;15.25;;
21503;SDS011;10913;51.992;9.228;2023-04-29T11:30:46;15.00;;;13.52;;
21503;SDS011;10913;51.992;9.228;2023-04-29T11:33:14;15.57;;;14.07;;
21503;SDS011;10913;51.992;9.228;2023-04-29T11:35:39;14.63;;;13.18;;
21503;SDS011;10913;51.992;9.228;2023-04-29T11:38:06;15.35;;;13.75;;
21503;SDS011;10913;51.992;9.228;2023-04-29T11:40:31;16.55;;;14.82;;
21503;SDS011;10913;51.992;9.228;2023-04-29T11:42:57;15.05;;;13.45;;
21503;SDS011;10913;51.992;9.228;2023-04-29T11:45:23;18.23;;;15.20;;
21503;SDS011;10913;51.992;9.228;2023-04-29T11:47:48;14.55;;;13.02;;
21503;SDS011;10913;51.992;9.228;2023-04-29T11:50:14;15.32;;;13.82;;
21503;SDS011;10913;51.992;9.228;2023-04-29T11:52:43;17.08;;;15.25;;
21503;SDS011;10913;51.992;9.228;2023-04-29T11:55:11;14.88;;;13.32;;
21503;SDS011;10913;51.992;9.228;2023-04-29T11:57:39;16.35;;;14.07;;
21503;SDS011;10913;51.992;9.228;2023-04-29T12:00:07;14.40;;;12.95;;
21503;SDS011;10913;51.992;9.228;2023-04-29T12:02:36;15.27;;;13.55;;
21503;SDS011;10913;51.992;9.228;2023-04-29T12:05:05;17.20;;;14.18;;
21503;SDS011;10913;51.992;9.228;2023-04-29T12:07:32;14.27;;;12.73;;
21503;SDS011;10913;51.992;9.228;2023-04-29T12:09:57;15.00;;;13.50;;
21503;SDS011;10913;51.992;9.228;2023-04-29T12:12:24;16.08;;;14.23;;
21503;SDS011;10913;51.992;9.228;2023-04-29T12:14:51;14.88;;;13.25;;
21503;SDS011;10913;51.992;9.228;2023-04-29T12:17:17;15.73;;;13.80;;
21503;SDS011;10913;51.992;9.228;2023-04-29T12:19:43;15.38;;;13.80;;
21503;SDS011;10913;51.992;9.228;2023-04-29T12:22:09;15.77;;;13.18;;
21503;SDS011;10913;51.992;9.228;2023-04-29T12:24:36;12.32;;;10.93;;
21503;SDS011;10913;51.992;9.228;2023-04-29T12:27:02;13.50;;;11.32;;
21503;SDS011;10913;51.992;9.228;2023-04-29T12:29:30;13.10;;;11.75;;
21503;SDS011;10913;51.992;9.228;2023-04-29T12:31:56;13.82;;;11.27;;
21503;SDS011;10913;51.992;9.228;2023-04-29T12:34:27;10.95;;;9.82;;
21503;SDS011;10913;51.992;9.228;2023-04-29T12:36:53;10.32;;;9.32;;
21503;SDS011;10913;51.992;9.228;2023-04-29T12:39:26;13.20;;;11.23;;
21503;SDS011;10913;51.992;9.228;2023-04-29T12:41:58;12.82;;;9.65;;
21503;SDS011;10913;51.992;9.228;2023-04-29T12:44:25;12.05;;;9.65;;
21503;SDS011;10913;51.992;9.228;2023-04-29T12:47:04;12.23;;;10.25;;
21503;SDS011;10913;51.992;9.228;2023-04-29T12:49:32;12.52;;;10.10;;
21503;SDS011;10913;51.992;9.228;2023-04-29T12:51:58;11.80;;;10.05;;
21503;SDS011;10913;51.992;9.228;2023-04-29T12:54:23;12.52;;;9.57;;
21503;SDS011;10913;51.992;9.228;2023-04-29T12:56:49;11.35;;;9.68;;
21503;SDS011;10913;51.992;9.228;2023-04-29T12:59:14;14.48;;;11.45;;
21503;SDS011;10913;51.992;9.228;2023-04-29T13:01:41;11.00;;;9.82;;
21503;SDS011;10913;51.992;9.228;2023-04-29T13:04:06;13.75;;;11.70;;
21503;SDS011;10913;51.992;9.228;2023-04-29T13:06:33;16.23;;;12.63;;
21503;SDS011;10913;51.992;9.228;2023-04-29T13:09:03;14.23;;;11.90;;
21503;SDS011;10913;51.992;9.228;2023-04-29T13:11:35;14.32;;;11.13;;
21503;SDS011;10913;51.992;9.228;2023-04-29T13:14:00;12.18;;;10.02;;
21503;SDS011;10913;51.992;9.228;2023-04-29T13:16:26;14.43;;;11.80;;
21503;SDS011;10913;51.992;9.228;2023-04-29T13:18:52;11.48;;;10.10;;
21503;SDS011;10913;51.992;9.228;2023-04-29T13:21:17;12.90;;;10.63;;
21503;SDS011;10913;51.992;9.228;2023-04-29T13:23:43;13.23;;;10.38;;
21503;SDS011;10913;51.992;9.228;2023-04-29T13:26:09;10.82;;;9.40;;
21503;SDS011;10913;51.992;9.228;2023-04-29T13:28:34;10.32;;;9.02;;
21503;SDS011;10913;51.992;9.228;2023-04-29T13:31:00;11.95;;;9.85;;
21503;SDS011;10913;51.992;9.228;2023-04-29T13:33:25;11.70;;;10.32;;
21503;SDS011;10913;51.992;9.228;2023-04-29T13:35:50;13.05;;;10.57;;
21503;SDS011;10913;51.992;9.228;2023-04-29T13:38:16;10.82;;;9.23;;
21503;SDS011;10913;51.992;9.228;2023-04-29T13:40:42;13.32;;;9.70;;
21503;SDS011;10913;51.992;9.228;2023-04-29T13:43:07;11.93;;;9.38;;
21503;SDS011;10913;51.992;9.228;2023-04-29T13:45:33;11.02;;;9.73;;
21503;SDS011;10913;51.992;9.228;2023-04-29T13:48:01;16.40;;;11.48;;
21503;SDS011;10913;51.992;9.228;2023-04-29T13:50:26;10.40;;;9.30;;
21503;SDS011;10913;51.992;9.228;2023-04-29T13:52:52;10.93;;;9.23;;
21503;SDS011;10913;51.992;9.228;2023-04-29T13:55:17;10.18;;;8.20;;
21503;SDS011;10913;51.992;9.228;2023-04-29T13:57:43;11.82;;;8.68;;
21503;SDS011;10913;51.992;9.228;2023-04-29T14:00:09;9.48;;;8.32;;
21503;SDS011;10913;51.992;9.228;2023-04-29T14:02:35;10.75;;;9.23;;
21503;SDS011;10913;51.992;9.228;2023-04-29T14:05:00;10.60;;;8.30;;
21503;SDS011;10913;51.992;9.228;2023-04-29T14:07:26;11.93;;;9.65;;
21503;SDS011;10913;51.992;9.228;2023-04-29T14:09:51;11.13;;;9.82;;
21503;SDS011;10913;51.992;9.228;2023-04-29T14:12:16;11.25;;;8.77;;
21503;SDS011;10913;51.992;9.228;2023-04-29T14:14:42;11.25;;;8.38;;
21503;SDS011;10913;51.992;9.228;2023-04-29T14:17:07;10.43;;;8.65;;
21503;SDS011;10913;51.992;9.228;2023-04-29T14:19:33;9.23;;;7.47;;
21503;SDS011;10913;51.992;9.228;2023-04-29T14:21:58;10.52;;;8.60;;
21503;SDS011;10913;51.992;9.228;2023-04-29T14:24:23;8.18;;;7.28;;
21503;SDS011;10913;51.992;9.228;2023-04-29T14:26:49;10.65;;;7.97;;
21503;SDS011;10913;51.992;9.228;2023-04-29T14:29:14;8.65;;;7.30;;
21503;SDS011;10913;51.992;9.228;2023-04-29T14:31:40;9.90;;;7.50;;
21503;SDS011;10913;51.992;9.228;2023-04-29T14:34:05;8.05;;;7.25;;
21503;SDS011;10913;51.992;9.228;2023-04-29T14:36:31;8.77;;;6.85;;
21503;SDS011;10913;51.992;9.228;2023-04-29T14:38:57;7.78;;;6.93;;
21503;SDS011;10913;51.992;9.228;2023-04-29T14:41:23;9.10;;;7.47;;
21503;SDS011;10913;51.992;9.228;2023-04-29T14:43:49;8.32;;;7.53;;
21503;SDS011;10913;51.992;9.228;2023-04-29T14:46:14;9.00;;;8.10;;
21503;SDS011;10913;51.992;9.228;2023-04-29T14:48:40;10.38;;;7.18;;
21503;SDS011;10913;51.992;9.228;2023-04-29T14:51:05;9.05;;;7.45;;